Skip Navigation

Christman Field Latest Observations

Switch to english unitsOther observation timesWeekly graphs

Date Time
MST
Temp
°C
RH
%
DewPt
°C
Wind
m/s
Dir
°
Gust
m/s
Dir
°
Press
hPa
Solar
W/m^2
Prec
mm
2019-09-16 14:30 31.8 12.1 -1.0 2.3 150 3.9 149 837.39 725.2 0.00
2019-09-16 14:25 32.1 12.0 -0.8 2.8 146 4.1 139 838.07 772.6 0.00
2019-09-16 14:20 32.1 12.1 -0.8 3.1 122 5.0 134 837.79 770.1 0.00
2019-09-16 14:15 32.1 12.8 0.0 2.5 72 4.2 121 838.56 802.0 0.00
2019-09-16 14:10 32.6 12.3 -0.1 3.1 109 5.3 118 838.37 857.0 0.00
2019-09-16 14:05 33.0 11.6 -0.5 2.7 121 8.0 179 837.98 887.0 0.00
2019-09-16 14:00 32.0 11.8 -1.2 1.1 176 2.7 230 837.74 905.0 0.00
2019-09-16 13:55 31.4 11.8 -1.6 2.7 244 3.7 220 837.22 839.0 0.00
2019-09-16 13:50 31.1 12.5 -1.1 3.0 264 4.7 233 838.13 679.2 0.00
2019-09-16 13:45 31.3 12.5 -0.9 2.0 302 3.0 213 838.19 834.0 0.00
2019-09-16 13:40 31.2 12.5 -1.0 2.1 241 3.7 191 838.48 847.0 0.00
2019-09-16 13:35 31.6 12.6 -0.6 2.7 135 4.7 141 838.62 883.0 0.00
2019-09-16 13:30 31.5 12.6 -0.6 2.5 235 4.3 202 838.68 906.0 0.00
2019-09-16 13:25 31.7 12.1 -1.0 2.1 135 3.3 151 838.69 907.0 0.00
2019-09-16 13:20 30.7 12.7 -1.1 1.5 151 3.6 136 838.72 790.1 0.00
2019-09-16 13:15 30.2 13.1 -1.1 2.0 141 3.1 137 838.73 453.6 0.00
2019-09-16 13:10 30.0 14.2 -0.3 1.5 144 3.5 116 838.77 385.8 0.00
2019-09-16 13:05 29.9 12.9 -1.5 1.6 78 3.5 93 838.82 329.3 0.00
2019-09-16 13:00 30.1 13.4 -0.9 2.4 93 3.9 125 838.84 325.0 0.00
2019-09-16 12:55 30.7 13.2 -0.6 2.5 115 3.7 81 838.85 386.8 0.00
2019-09-16 12:50 31.1 12.9 -0.7 2.2 82 3.3 82 838.92 818.0 0.00
2019-09-16 12:45 30.6 13.2 -0.7 2.7 138 4.1 154 838.96 832.0 0.00
2019-09-16 12:40 30.1 13.6 -0.7 2.8 92 4.5 142 838.96 556.3 0.00
2019-09-16 12:35 29.6 13.6 -1.0 3.0 124 4.8 126 838.94 452.3 0.00
2019-09-16 12:30 29.7 14.5 -0.2 3.3 141 5.4 133 838.90 431.1 0.00
2019-09-16 12:25 29.8 14.2 -0.4 3.6 152 4.9 149 838.83 415.6 0.00
2019-09-16 12:20 29.8 13.1 -1.5 2.6 119 4.3 127 838.85 494.2 0.00
2019-09-16 12:15 30.3 12.7 -1.5 2.5 156 4.4 127 838.99 456.1 0.00
2019-09-16 12:10 30.9 12.9 -0.8 3.2 131 4.7 130 839.01 888.0 0.00
2019-09-16 12:05 30.6 13.4 -0.5 2.9 151 4.8 164 839.03 875.0 0.00